CheckWX is a tool to help pilots better visualize weather data.  It is not intended as a substitute for an official pre-flight weather briefing.

02:51:51 UTC

OMDB METAR
Dubai International Airport
Dubai, United Arab Emirates
Current

52 mins ago

OMDB 230200Z 06007KT CAVOK 24/13 Q1013 NOSIG
Observed
Mar-23 @ 02:00 UTC
Wind
  • 060° at 7 KTS
Visibility
10,000+ meters
Flight Rules
VFR
Cloud Levels
  • Clear skies
Temperature
24°C / 75°F
Dewpoint
13°C / 55°F
Humidity
50%
Altimeter
29.91" Hg
Pressure
1012.92 hPa
Previous

2 hours ago

OMDB 230100Z 07006KT 010V110 CAVOK 25/11 Q1012 WS ALL RWY NOSIG
Observed
Mar-23 @ 01:00 UTC
Wind
  • 070° at 6 KTS
Visibility
10,000+ meters
Flight Rules
VFR
Cloud Levels
  • Clear skies
Temperature
25°C / 77°F
Dewpoint
11°C / 52°F
Humidity
42%
Altimeter
29.88" Hg
Pressure
1011.92 hPa
Previous

3 hours ago

OMDB 230000Z 05007KT CAVOK 25/10 Q1012 WS ALL RWY NOSIG
Observed
Mar-23 @ 00:00 UTC
Wind
  • 050° at 7 KTS
Visibility
10,000+ meters
Flight Rules
VFR
Cloud Levels
  • Clear skies
Temperature
25°C / 77°F
Dewpoint
10°C / 50°F
Humidity
39%
Altimeter
29.88" Hg
Pressure
1011.92 hPa